Terminal Aerodrome Forecast
Issued by NWS Charleston, WV

Home | Current Version | Previous Version | Text Only | Print | Product List | Glossary On
Versions: 1 2 3 4 5 6 7 8 9 10 11 12 13 14 15 16 17 18 19 20 21 22 23 24 25 26
000
FTUS41 KRLX 291400 AAB
TAFBKW
TAF AMD
KBKW 291429Z 2914/3012 26006KT P6SM SCT010 BKN035
      TEMPO 2914/2917 BKN015 BKN025
     FM291700 31007KT P6SM VCSH SCT040
     FM292200 33006KT P6SM SCT050
     FM300300 00000KT P6SM FEW100=

USA.gov is the U.S. government's official web portal to all federal, state and local government web resources and services.